createdAt,value
2018-06-30T00:01:04.007Z,1017.8
2018-06-30T00:06:04.518Z,1017.8
2018-06-30T00:11:04.140Z,1017.8
2018-06-30T00:16:04.410Z,1017.8
2018-06-30T00:21:03.929Z,1017.8
2018-06-30T00:26:04.141Z,1017.8
2018-06-30T00:31:04.415Z,1017.8
2018-06-30T00:36:03.922Z,1017.8
2018-06-30T00:41:04.529Z,1017.8
2018-06-30T00:46:03.829Z,1017.8
2018-06-30T00:51:04.301Z,1017.8
2018-06-30T00:56:04.463Z,1017.8
2018-06-30T01:01:03.764Z,1017.7
2018-06-30T01:06:04.257Z,1017.8
2018-06-30T01:11:03.863Z,1017.7
2018-06-30T01:16:04.118Z,1017.8
2018-06-30T01:21:04.635Z,1017.8
2018-06-30T01:26:03.854Z,1017.9
2018-06-30T01:31:04.112Z,1017.8
2018-06-30T01:36:04.617Z,1017.9
2018-06-30T01:41:04.216Z,1017.8
2018-06-30T01:46:04.532Z,1017.8
2018-06-30T01:51:03.965Z,1017.7
2018-06-30T01:56:04.219Z,1017.7
2018-06-30T02:01:04.499Z,1017.7
2018-06-30T02:06:03.913Z,1017.7
2018-06-30T02:11:04.531Z,1017.6
2018-06-30T02:16:03.869Z,1017.6
2018-06-30T02:21:04.376Z,1017.6
2018-06-30T02:26:04.581Z,1017.6
2018-06-30T02:31:03.844Z,1017.6
2018-06-30T02:36:04.329Z,1017.7
2018-06-30T02:41:03.884Z,1017.6
2018-06-30T02:46:04.846Z,1017.6
2018-06-30T02:51:04.602Z,1017.5
2018-06-30T02:56:03.856Z,1017.6
2018-06-30T03:01:04.145Z,1017.7
2018-06-30T03:06:04.555Z,1017.8
2018-06-30T03:11:04.189Z,1017.8
2018-06-30T03:16:04.467Z,1017.7
2018-06-30T03:21:04.005Z,1017.7
2018-06-30T03:26:04.177Z,1017.7
2018-06-30T03:31:04.497Z,1017.7
2018-06-30T03:36:03.931Z,1017.7
2018-06-30T03:41:04.518Z,1017.7
2018-06-30T03:46:03.810Z,1017.6
2018-06-30T03:51:04.289Z,1017.6
2018-06-30T03:56:04.504Z,1017.7
2018-06-30T04:01:03.829Z,1017.7
2018-06-30T04:06:04.230Z,1017.6
2018-06-30T04:11:03.865Z,1017.7
2018-06-30T04:16:04.098Z,1017.7
2018-06-30T04:21:04.609Z,1017.8
2018-06-30T04:26:04.303Z,1017.8
2018-06-30T04:31:04.578Z,1017.7
2018-06-30T04:36:04.067Z,1017.7
2018-06-30T04:41:04.618Z,1017.7
2018-06-30T04:46:03.918Z,1017.7
2018-06-30T04:51:04.842Z,1017.7
2018-06-30T04:56:04.613Z,1017.8
2018-06-30T05:01:03.863Z,1017.8
2018-06-30T05:06:04.408Z,1017.8
2018-06-30T05:11:03.917Z,1017.9
2018-06-30T05:16:04.206Z,1018
2018-06-30T05:21:09.727Z,1017.9
2018-06-30T05:26:04.076Z,1017.9
2018-06-30T05:31:04.239Z,1018
2018-06-30T05:36:04.684Z,1018
2018-06-30T05:41:04.561Z,1017.9
2018-06-30T05:46:04.589Z,1017.8
2018-06-30T05:51:04.098Z,1017.8
2018-06-30T05:56:04.254Z,1017.9
2018-06-30T06:01:04.554Z,1017.9
2018-06-30T06:06:04.035Z,1017.8
2018-06-30T06:11:04.625Z,1017.8
2018-06-30T06:16:03.903Z,1017.7
2018-06-30T06:21:04.696Z,1017.8
2018-06-30T06:26:04.648Z,1017.7
2018-06-30T06:31:03.938Z,1017.7
2018-06-30T06:36:04.418Z,1017.7
2018-06-30T06:41:03.965Z,1017.7
2018-06-30T06:46:04.256Z,1017.7
2018-06-30T06:51:05.189Z,1017.7
2018-06-30T06:56:03.916Z,1017.6
2018-06-30T07:01:04.182Z,1017.6
2018-06-30T07:06:04.694Z,1017.6
2018-06-30T07:11:04.306Z,1017.7
2018-06-30T07:16:04.558Z,1017.7
2018-06-30T07:21:04.075Z,1017.6
2018-06-30T07:26:04.303Z,1017.7
2018-06-30T07:31:04.618Z,1017.7
2018-06-30T07:36:04.078Z,1017.6
2018-06-30T07:41:04.667Z,1017.7
2018-06-30T07:46:03.973Z,1017.7
2018-06-30T07:51:04.425Z,1017.6
2018-06-30T07:56:04.984Z,1017.6
2018-06-30T08:01:03.908Z,1017.5
2018-06-30T08:06:04.404Z,1017.6
2018-06-30T08:11:04.024Z,1017.6
2018-06-30T08:16:04.278Z,1017.5
2018-06-30T08:21:05.002Z,1017.5
2018-06-30T08:26:03.980Z,1017.5
2018-06-30T08:31:04.268Z,1017.6
2018-06-30T08:36:04.736Z,1017.6
2018-06-30T08:41:04.283Z,1017.6
2018-06-30T08:46:04.594Z,1017.5
2018-06-30T08:51:04.458Z,1017.6
2018-06-30T08:56:04.296Z,1017.5
2018-06-30T09:01:04.546Z,1017.5
2018-06-30T09:06:04.018Z,1017.5
2018-06-30T09:11:04.631Z,1017.4
2018-06-30T09:16:04.056Z,1017.3
2018-06-30T09:21:04.387Z,1017.3
2018-06-30T09:26:04.600Z,1017.4
2018-06-30T09:31:03.900Z,1017.4
2018-06-30T09:36:04.385Z,1017.4
2018-06-30T09:41:03.937Z,1017.3
2018-06-30T09:46:04.268Z,1017.4
2018-06-30T09:51:05.471Z,1017.4
2018-06-30T09:56:03.923Z,1017.3
2018-06-30T10:01:04.260Z,1017.3
2018-06-30T10:06:04.689Z,1017.3
2018-06-30T10:11:04.312Z,1017.2
2018-06-30T10:16:04.593Z,1017.2
2018-06-30T10:21:05.208Z,1017.2
2018-06-30T10:26:04.343Z,1017.2
2018-06-30T10:31:04.643Z,1017.2
2018-06-30T10:36:04.125Z,1017.2
2018-06-30T10:41:04.683Z,1017.2
2018-06-30T10:46:03.985Z,1017.1
2018-06-30T10:51:04.479Z,1017
2018-06-30T10:56:04.679Z,1017
2018-06-30T11:01:03.967Z,1016.9
2018-06-30T11:06:04.448Z,1017
2018-06-30T11:11:04.658Z,1017
2018-06-30T11:16:04.307Z,1017
2018-06-30T11:21:04.895Z,1016.9
2018-06-30T11:26:04.037Z,1016.9
2018-06-30T11:31:04.325Z,1016.8
2018-06-30T11:36:04.808Z,1016.8
2018-06-30T11:41:04.395Z,1016.8
2018-06-30T11:46:04.714Z,1016.7
2018-06-30T11:51:04.160Z,1016.7
2018-06-30T11:56:04.357Z,1016.6
2018-06-30T12:01:04.622Z,1016.6
2018-06-30T12:06:04.118Z,1016.6
2018-06-30T12:11:03.770Z,1016.5
2018-06-30T12:16:04.012Z,1016.4
2018-06-30T12:21:04.608Z,1016.4
2018-06-30T12:26:03.795Z,1016.4
2018-06-30T12:31:04.023Z,1016.4
2018-06-30T12:36:04.516Z,1016.3
2018-06-30T12:41:04.134Z,1016.2
2018-06-30T12:46:04.345Z,1016.2
2018-06-30T12:51:04.797Z,1016.2
2018-06-30T12:56:04.027Z,1016.3
2018-06-30T13:01:04.318Z,1016.2
2018-06-30T13:06:04.780Z,1016.1
2018-06-30T13:11:04.627Z,1016.1
2018-06-30T13:16:04.692Z,1016
2018-06-30T13:21:04.174Z,1015.9
2018-06-30T13:26:04.350Z,1016
2018-06-30T13:31:04.628Z,1016
2018-06-30T13:36:04.119Z,1015.9
2018-06-30T13:41:04.705Z,1015.9
2018-06-30T13:46:04.028Z,1015.9
2018-06-30T13:51:04.489Z,1015.8
2018-06-30T13:56:04.678Z,1015.8
2018-06-30T14:01:04.010Z,1015.7
2018-06-30T14:06:04.486Z,1015.7
2018-06-30T14:11:04.113Z,1015.7
2018-06-30T14:16:04.406Z,1015.7
2018-06-30T14:21:03.955Z,1015.6
2018-06-30T14:26:04.128Z,1015.6
2018-06-30T14:31:04.386Z,1015.6
2018-06-30T14:36:03.913Z,1015.6
2018-06-30T14:41:04.470Z,1015.5
2018-06-30T14:46:03.760Z,1015.4
2018-06-30T14:51:04.210Z,1015.5
2018-06-30T14:56:04.470Z,1015.4
2018-06-30T15:01:03.805Z,1015.5
2018-06-30T15:06:04.237Z,1015.4
2018-06-30T15:11:03.836Z,1015.3
2018-06-30T15:16:04.141Z,1015.3
2018-06-30T15:21:04.657Z,1015.3
2018-06-30T15:26:03.864Z,1015.4
2018-06-30T15:31:04.140Z,1015.4
2018-06-30T15:36:05.649Z,1015.3
2018-06-30T15:41:04.198Z,1015.3
2018-06-30T15:46:04.455Z,1015.3
2018-06-30T15:51:03.979Z,1015.2
2018-06-30T15:56:04.156Z,1015.2
2018-06-30T16:01:04.446Z,1015.2
2018-06-30T16:06:04.466Z,1015.3
2018-06-30T16:11:04.508Z,1015.3
2018-06-30T16:16:03.824Z,1015.4
2018-06-30T16:21:04.376Z,1015.2
2018-06-30T16:26:04.508Z,1015.3
2018-06-30T16:31:03.988Z,1015.3
2018-06-30T16:36:04.300Z,1015.3
2018-06-30T16:41:03.899Z,1015.3
2018-06-30T16:46:04.185Z,1015.2
2018-06-30T16:51:04.657Z,1015.2
2018-06-30T16:56:03.899Z,1015.2
2018-06-30T17:01:04.186Z,1015.2
2018-06-30T17:06:04.720Z,1015.3
2018-06-30T17:11:04.225Z,1015.2
2018-06-30T17:16:04.517Z,1015.2
2018-06-30T17:21:04.069Z,1015.2
2018-06-30T17:26:05.039Z,1015.2
2018-06-30T17:31:04.522Z,1015.2
2018-06-30T17:36:03.996Z,1015.2
2018-06-30T17:41:04.545Z,1015.2
2018-06-30T17:46:03.875Z,1015.3
2018-06-30T17:51:04.274Z,1015.3
2018-06-30T17:56:04.497Z,1015.3
2018-06-30T18:01:03.824Z,1015.3
2018-06-30T18:06:04.215Z,1015.4
2018-06-30T18:11:03.838Z,1015.4
2018-06-30T18:16:04.314Z,1015.5
2018-06-30T18:21:04.613Z,1015.5
2018-06-30T18:26:03.816Z,1015.4
2018-06-30T18:31:04.057Z,1015.5
2018-06-30T18:36:04.557Z,1015.5
2018-06-30T18:41:04.134Z,1015.6
2018-06-30T18:46:04.436Z,1015.6
2018-06-30T18:51:03.975Z,1015.6
2018-06-30T18:56:04.143Z,1015.6
2018-06-30T19:01:04.449Z,1015.6
2018-06-30T19:06:03.947Z,1015.7
2018-06-30T19:11:04.486Z,1015.8
2018-06-30T19:16:04.329Z,1015.8
2018-06-30T19:21:04.270Z,1015.8
2018-06-30T19:26:04.466Z,1015.8
2018-06-30T19:31:03.776Z,1015.9
2018-06-30T19:36:04.245Z,1016
2018-06-30T19:41:03.893Z,1016.1
2018-06-30T19:46:04.104Z,1016.1
2018-06-30T19:51:04.746Z,1016.3
2018-06-30T19:56:03.844Z,1016.3
2018-06-30T20:01:04.139Z,1016.3
2018-06-30T20:06:04.594Z,1016.3
2018-06-30T20:11:04.163Z,1016.4
2018-06-30T20:16:04.707Z,1016.5
2018-06-30T20:21:04.010Z,1016.6
2018-06-30T20:26:04.177Z,1016.6
2018-06-30T20:31:04.454Z,1016.7
2018-06-30T20:36:03.935Z,1016.7
2018-06-30T20:41:04.538Z,1016.7
2018-06-30T20:46:03.806Z,1016.8
2018-06-30T20:51:04.319Z,1016.8
2018-06-30T20:56:04.532Z,1016.8
2018-06-30T21:01:03.843Z,1017
2018-06-30T21:06:04.268Z,1017
2018-06-30T21:11:03.858Z,1017.1
2018-06-30T21:16:04.155Z,1017.1
2018-06-30T21:21:04.653Z,1017.2
2018-06-30T21:26:03.858Z,1017.2
2018-06-30T21:31:04.147Z,1017.3
2018-06-30T21:36:04.607Z,1017.3
2018-06-30T21:41:04.239Z,1017.3
2018-06-30T21:46:04.494Z,1017.3
2018-06-30T21:51:03.968Z,1017.3
2018-06-30T21:56:04.164Z,1017.4
2018-06-30T22:01:04.431Z,1017.5
2018-06-30T22:06:03.979Z,1017.6
2018-06-30T22:11:06.333Z,1017.6
2018-06-30T22:16:03.882Z,1017.7
2018-06-30T22:21:04.385Z,1017.7
2018-06-30T22:26:04.517Z,1017.7
2018-06-30T22:31:03.832Z,1017.7
2018-06-30T22:36:04.264Z,1017.8
2018-06-30T22:41:03.853Z,1017.8
2018-06-30T22:46:04.171Z,1017.8
2018-06-30T22:51:04.615Z,1017.8
2018-06-30T22:56:03.858Z,1017.8
2018-06-30T23:01:04.119Z,1017.8
2018-06-30T23:06:04.572Z,1017.8
2018-06-30T23:11:04.188Z,1017.9
2018-06-30T23:16:04.457Z,1017.9
2018-06-30T23:21:03.997Z,1017.9
2018-06-30T23:26:04.186Z,1018
2018-06-30T23:31:04.484Z,1017.9
2018-06-30T23:36:04.602Z,1018
2018-06-30T23:41:04.532Z,1018.1
2018-06-30T23:46:03.853Z,1018
2018-06-30T23:51:04.284Z,1018
2018-06-30T23:56:04.476Z,1018.1
